createdAt,value
2019-03-24T00:00:23.706Z,36.9
2019-03-24T00:01:12.620Z,36.9
2019-03-24T00:02:03.545Z,36.9
2019-03-24T00:02:53.588Z,36.9
2019-03-24T00:03:43.423Z,36.9
2019-03-24T00:04:32.907Z,36.9
2019-03-24T00:05:23.493Z,36.9
2019-03-24T00:06:14.135Z,36.9
2019-03-24T00:07:03.613Z,36.9
2019-03-24T00:07:53.392Z,36.9
2019-03-24T00:08:44.029Z,36.9
2019-03-24T00:09:34.374Z,36.9
2019-03-24T00:10:24.154Z,36.9
2019-03-24T00:11:14.165Z,36.9
2019-03-24T00:12:03.732Z,36.8
2019-03-24T00:12:54.097Z,36.8
2019-03-24T00:13:44.393Z,36.8
2019-03-24T00:14:35.011Z,36.8
2019-03-24T00:15:32.858Z,36.8
2019-03-24T00:16:14.346Z,36.8
2019-03-24T00:17:04.915Z,36.8
2019-03-24T00:17:53.858Z,36.8
2019-03-24T00:18:45.336Z,36.8
2019-03-24T00:19:34.814Z,36.8
2019-03-24T00:20:25.424Z,36.8
2019-03-24T00:21:14.638Z,36.8
2019-03-24T00:22:04.726Z,36.8
2019-03-24T00:22:54.561Z,36.8
2019-03-24T00:23:45.374Z,36.8
2019-03-24T00:24:35.709Z,36.8
2019-03-24T00:25:25.239Z,36.7
2019-03-24T00:26:15.306Z,36.7
2019-03-24T00:27:04.823Z,36.7
2019-03-24T00:27:55.174Z,36.7
2019-03-24T00:28:45.801Z,36.7
2019-03-24T00:29:35.238Z,36.7
2019-03-24T00:30:25.077Z,36.7
2019-03-24T00:31:15.706Z,36.7
2019-03-24T00:32:04.909Z,36.7
2019-03-24T00:32:55.510Z,36.7
2019-03-24T00:33:46.148Z,36.6
2019-03-24T00:34:35.393Z,36.6
2019-03-24T00:35:26.235Z,36.6
2019-03-24T00:36:15.239Z,36.6
2019-03-24T00:37:06.093Z,36.6
2019-03-24T00:37:56.403Z,36.6
2019-03-24T00:38:45.948Z,36.6
2019-03-24T00:39:36.285Z,36.6
2019-03-24T00:40:26.607Z,36.6
2019-03-24T00:41:16.390Z,36.6
2019-03-24T00:42:06.998Z,36.6
2019-03-24T00:42:55.953Z,36.6
2019-03-24T00:43:46.837Z,36.6
2019-03-24T00:44:36.632Z,36.6
2019-03-24T00:45:38.077Z,36.6
2019-03-24T00:46:16.172Z,36.6
2019-03-24T00:47:05.990Z,36.6
2019-03-24T00:47:56.878Z,36.6
2019-03-24T00:48:47.252Z,36.6
2019-03-24T00:49:36.699Z,36.6
2019-03-24T00:50:27.337Z,36.5
2019-03-24T00:51:16.541Z,36.6
2019-03-24T00:52:07.192Z,36.5
2019-03-24T00:52:56.667Z,36.5
2019-03-24T00:53:47.047Z,36.5
2019-03-24T00:54:36.528Z,36.5
2019-03-24T00:55:26.842Z,36.5
2019-03-24T00:56:17.462Z,36.5
2019-03-24T00:57:07.532Z,36.5
2019-03-24T00:57:57.584Z,36.5
2019-03-24T00:58:48.265Z,36.5
2019-03-24T00:59:38.019Z,36.4
2019-03-24T01:00:26.957Z,36.4
2019-03-24T01:01:17.571Z,36.4
2019-03-24T01:02:08.196Z,36.4
2019-03-24T01:02:57.945Z,36.4
2019-03-24T01:03:47.460Z,36.4
2019-03-24T01:04:38.338Z,36.4
2019-03-24T01:05:26.791Z,36.4
2019-03-24T01:06:17.093Z,36.4
2019-03-24T01:07:08.251Z,36.4
2019-03-24T01:07:58.595Z,36.4
2019-03-24T01:08:48.100Z,36.4
2019-03-24T01:09:37.920Z,36.4
2019-03-24T01:10:27.951Z,36.4
2019-03-24T01:11:18.275Z,36.4
2019-03-24T01:12:08.349Z,36.4
2019-03-24T01:12:58.413Z,36.4
2019-03-24T01:13:49.058Z,36.3
2019-03-24T01:14:38.826Z,36.3
2019-03-24T01:15:29.378Z,36.3
2019-03-24T01:16:19.241Z,36.3
2019-03-24T01:17:08.993Z,36.3
2019-03-24T01:18:00.988Z,36.3
2019-03-24T01:18:48.576Z,36.3
2019-03-24T01:19:39.430Z,36.3
2019-03-24T01:20:28.988Z,36.3
2019-03-24T01:21:18.490Z,36.3
2019-03-24T01:22:08.520Z,36.3
2019-03-24T01:22:59.295Z,36.3
2019-03-24T01:23:48.622Z,36.3
2019-03-24T01:24:39.792Z,36.3
2019-03-24T01:25:29.654Z,36.3
2019-03-24T01:26:19.375Z,36.3
2019-03-24T01:27:09.488Z,36.3
2019-03-24T01:27:59.494Z,36.3
2019-03-24T01:28:48.462Z,36.3
2019-03-24T01:29:39.884Z,36.3
2019-03-24T01:30:29.690Z,36.3
2019-03-24T01:31:19.737Z,36.3
2019-03-24T01:32:10.059Z,36.3
2019-03-24T01:32:59.839Z,36.2
2019-03-24T01:33:50.183Z,36.2
2019-03-24T01:34:39.964Z,36.2
2019-03-24T01:35:30.627Z,36.2
2019-03-24T01:36:20.102Z,36.2
2019-03-24T01:37:10.439Z,36.2
2019-03-24T01:38:00.199Z,36.2
2019-03-24T01:38:51.142Z,36.2
2019-03-24T01:39:40.636Z,36.1
2019-03-24T01:40:30.962Z,36.1
2019-03-24T01:41:21.017Z,36.2
2019-03-24T01:42:10.809Z,36.1
2019-03-24T01:43:00.601Z,36.1
2019-03-24T01:43:50.693Z,36.1
2019-03-24T01:44:40.710Z,36.1
2019-03-24T01:45:30.509Z,36.1
2019-03-24T01:46:20.010Z,36.1
2019-03-24T01:47:10.916Z,36.1
2019-03-24T01:48:01.781Z,36.1
2019-03-24T01:48:51.826Z,36.1
2019-03-24T01:49:41.592Z,36.1
2019-03-24T01:50:31.453Z,36.1
2019-03-24T01:51:21.473Z,36.1
2019-03-24T01:52:11.234Z,36.1
2019-03-24T01:53:01.864Z,36.1
2019-03-24T01:53:52.198Z,36.1
2019-03-24T01:54:41.468Z,36.1
2019-03-24T01:55:32.066Z,36
2019-03-24T01:56:22.093Z,36
2019-03-24T01:57:12.441Z,36
2019-03-24T01:58:01.961Z,36
2019-03-24T01:58:52.008Z,36
2019-03-24T01:59:42.063Z,36
2019-03-24T02:00:32.658Z,36
2019-03-24T02:01:21.927Z,36
2019-03-24T02:02:12.048Z,36
2019-03-24T02:03:02.344Z,36
2019-03-24T02:03:52.685Z,36
2019-03-24T02:04:42.773Z,35.9
2019-03-24T02:05:33.213Z,35.9
2019-03-24T02:06:21.832Z,35.9
2019-03-24T02:07:12.170Z,35.9
2019-03-24T02:08:02.408Z,35.9
2019-03-24T02:08:52.733Z,35.9
2019-03-24T02:09:42.528Z,35.9
2019-03-24T02:10:32.135Z,35.9
2019-03-24T02:11:23.218Z,35.9
2019-03-24T02:12:12.207Z,35.9
2019-03-24T02:13:02.288Z,35.9
2019-03-24T02:13:52.807Z,35.9
2019-03-24T02:14:42.995Z,35.9
2019-03-24T02:15:33.027Z,35.9
2019-03-24T02:16:22.795Z,35.9
2019-03-24T02:17:12.322Z,35.9
2019-03-24T02:18:03.213Z,35.9
2019-03-24T02:18:53.283Z,35.9
2019-03-24T02:19:42.514Z,35.8
2019-03-24T02:20:32.894Z,35.8
2019-03-24T02:21:23.507Z,35.8
2019-03-24T02:22:13.234Z,35.9
2019-03-24T02:23:04.035Z,35.8
2019-03-24T02:23:53.627Z,35.8
2019-03-24T02:24:43.982Z,35.8
2019-03-24T02:25:32.699Z,35.8
2019-03-24T02:26:22.759Z,35.8
2019-03-24T02:27:13.320Z,35.8
2019-03-24T02:28:03.456Z,35.8
2019-03-24T02:28:53.239Z,35.8
2019-03-24T02:29:42.756Z,35.8
2019-03-24T02:30:33.465Z,35.8
2019-03-24T02:31:24.032Z,35.8
2019-03-24T02:32:14.092Z,35.8
2019-03-24T02:33:03.616Z,35.8
2019-03-24T02:33:53.967Z,35.8
2019-03-24T02:34:43.477Z,35.8
2019-03-24T02:35:33.560Z,35.8
2019-03-24T02:36:22.515Z,35.8
2019-03-24T02:37:13.379Z,35.8
2019-03-24T02:38:03.669Z,35.8
2019-03-24T02:38:54.342Z,35.8
2019-03-24T02:39:44.845Z,35.8
2019-03-24T02:40:33.856Z,35.7
2019-03-24T02:41:24.670Z,35.7
2019-03-24T02:42:14.701Z,35.8
2019-03-24T02:43:04.581Z,35.7
2019-03-24T02:43:54.309Z,35.7
2019-03-24T02:44:44.411Z,35.7
2019-03-24T02:45:35.276Z,35.7
2019-03-24T02:46:29.972Z,35.7
2019-03-24T02:47:14.645Z,35.7
2019-03-24T02:48:05.266Z,35.6
2019-03-24T02:48:55.791Z,35.7
2019-03-24T02:49:44.781Z,35.7
2019-03-24T02:50:35.009Z,35.6
2019-03-24T02:51:25.778Z,35.6
2019-03-24T02:52:16.060Z,35.6
2019-03-24T02:53:05.867Z,35.6
2019-03-24T02:53:55.016Z,35.6
2019-03-24T02:54:46.276Z,35.6
2019-03-24T02:55:35.703Z,35.6
2019-03-24T02:56:25.703Z,35.6
2019-03-24T02:57:15.589Z,35.6
2019-03-24T02:58:06.386Z,35.6
2019-03-24T02:58:56.542Z,35.6
2019-03-24T02:59:46.798Z,35.6
2019-03-24T03:00:36.292Z,35.6
2019-03-24T03:01:27.144Z,35.6
2019-03-24T03:02:16.982Z,35.6
2019-03-24T03:03:06.010Z,35.6
2019-03-24T03:03:57.409Z,35.6
2019-03-24T03:07:27.226Z,35.5
2019-03-24T03:08:17.043Z,35.5
2019-03-24T03:09:06.562Z,35.5
2019-03-24T03:09:57.377Z,35.5
2019-03-24T03:10:47.503Z,35.5
2019-03-24T03:11:37.985Z,35.5
2019-03-24T03:12:27.136Z,35.5
2019-03-24T03:13:17.834Z,35.5
2019-03-24T03:14:07.420Z,35.5
2019-03-24T03:14:57.664Z,35.4
2019-03-24T03:15:48.318Z,35.5
2019-03-24T03:16:44.509Z,35.5
2019-03-24T03:17:28.244Z,35.5
2019-03-24T03:18:17.414Z,35.4
2019-03-24T03:19:08.312Z,35.4
2019-03-24T03:19:59.857Z,35.4
2019-03-24T03:20:48.996Z,35.4
2019-03-24T03:21:38.458Z,35.4
2019-03-24T03:22:28.285Z,35.4
2019-03-24T03:23:18.912Z,35.4
2019-03-24T03:24:08.934Z,35.4
2019-03-24T03:24:58.502Z,35.3
2019-03-24T03:25:49.066Z,35.4
2019-03-24T03:26:39.077Z,35.4
2019-03-24T03:27:28.296Z,35.3
2019-03-24T03:28:19.503Z,35.4
2019-03-24T03:29:08.834Z,35.4
2019-03-24T03:29:59.069Z,35.4
2019-03-24T03:30:49.642Z,35.4
2019-03-24T03:31:39.884Z,35.4
2019-03-24T03:32:29.156Z,35.4
2019-03-24T03:33:19.959Z,35.4
2019-03-24T03:34:10.274Z,35.3
2019-03-24T03:34:59.976Z,35.4
2019-03-24T03:35:49.603Z,35.3
2019-03-24T03:36:39.959Z,35.3
2019-03-24T03:37:29.612Z,35.3
2019-03-24T03:38:20.338Z,35.3
2019-03-24T03:39:10.038Z,35.3
2019-03-24T03:40:05.358Z,35.3
2019-03-24T03:40:50.708Z,35.3
2019-03-24T03:41:40.490Z,35.3
2019-03-24T03:42:30.303Z,35.3
2019-03-24T03:43:20.049Z,35.3
2019-03-24T03:44:09.853Z,35.3
2019-03-24T03:45:00.471Z,35.3
2019-03-24T03:45:50.253Z,35.3
2019-03-24T03:46:55.177Z,35.3
2019-03-24T03:47:29.538Z,35.2
2019-03-24T03:48:20.696Z,35.3
2019-03-24T03:49:10.825Z,35.2
2019-03-24T03:50:00.645Z,35.3
2019-03-24T03:50:50.654Z,35.2
2019-03-24T03:51:40.412Z,35.2
2019-03-24T03:52:30.687Z,35.3
2019-03-24T03:53:21.105Z,35.2
2019-03-24T03:54:11.289Z,35.2
2019-03-24T03:55:01.245Z,35.2
2019-03-24T03:55:51.101Z,35.2
2019-03-24T03:56:40.294Z,35.2
2019-03-24T03:57:31.070Z,35.1
2019-03-24T03:58:21.134Z,35.2
2019-03-24T03:59:10.923Z,35.2
2019-03-24T04:00:01.926Z,35.1
2019-03-24T04:00:51.697Z,35.2
2019-03-24T04:01:41.114Z,35.1
2019-03-24T04:02:31.716Z,35.1
2019-03-24T04:03:21.736Z,35.1
2019-03-24T04:04:11.394Z,35.1
2019-03-24T04:05:01.105Z,35.1
2019-03-24T04:05:51.174Z,35.1
2019-03-24T04:06:40.436Z,35.1
2019-03-24T04:07:30.612Z,35.1
2019-03-24T04:08:21.934Z,35.1
2019-03-24T04:09:11.762Z,35.1
2019-03-24T04:10:01.638Z,35.1
2019-03-24T04:10:52.339Z,35.1
2019-03-24T04:11:42.126Z,35.1
2019-03-24T04:12:32.424Z,35.1
2019-03-24T04:13:21.690Z,35.1
2019-03-24T04:14:12.538Z,35.1
2019-03-24T04:15:02.670Z,35.1
2019-03-24T04:15:51.900Z,35.1
2019-03-24T04:16:42.495Z,35.1
2019-03-24T04:17:32.275Z,35
2019-03-24T04:18:21.890Z,35.1
2019-03-24T04:19:12.395Z,35
2019-03-24T04:20:03.132Z,35
2019-03-24T04:20:53.062Z,35
2019-03-24T04:21:42.564Z,35
2019-03-24T04:22:33.200Z,35
2019-03-24T04:23:23.296Z,35
2019-03-24T04:24:13.592Z,35
2019-03-24T04:25:03.626Z,35
2019-03-24T04:25:53.067Z,35
2019-03-24T04:26:42.926Z,34.9
2019-03-24T04:27:33.564Z,34.9
2019-03-24T04:28:22.814Z,34.9
2019-03-24T04:29:13.131Z,34.9
2019-03-24T04:30:01.863Z,34.9
2019-03-24T04:30:53.232Z,34.9
2019-03-24T04:31:44.160Z,34.9
2019-03-24T04:32:33.655Z,34.9
2019-03-24T04:33:23.447Z,34.9
2019-03-24T04:34:13.322Z,34.9
2019-03-24T04:35:02.956Z,34.9
2019-03-24T04:35:54.093Z,34.9
2019-03-24T04:36:43.385Z,34.9
2019-03-24T04:37:36.535Z,34.9
2019-03-24T04:38:24.014Z,34.9
2019-03-24T04:39:13.852Z,34.9
2019-03-24T04:40:03.809Z,34.9
2019-03-24T04:40:52.954Z,34.9
2019-03-24T04:41:43.969Z,34.9
2019-03-24T04:42:32.992Z,34.8
2019-03-24T04:43:23.671Z,34.9
2019-03-24T04:44:14.456Z,34.9
2019-03-24T04:45:03.986Z,34.8
2019-03-24T04:45:54.499Z,34.9
2019-03-24T04:46:43.259Z,34.9
2019-03-24T04:47:34.408Z,34.8
2019-03-24T04:48:23.658Z,34.8
2019-03-24T04:49:15.014Z,34.8
2019-03-24T04:50:04.626Z,34.8
2019-03-24T04:50:54.720Z,34.8
2019-03-24T04:51:44.170Z,34.8
2019-03-24T04:52:35.051Z,34.8
2019-03-24T04:53:26.160Z,34.8
2019-03-24T04:54:13.788Z,34.8
2019-03-24T04:55:04.733Z,34.8
2019-03-24T04:55:54.209Z,34.8
2019-03-24T04:56:44.806Z,34.8
2019-03-24T04:57:35.351Z,34.8
2019-03-24T04:58:24.398Z,34.8
2019-03-24T04:59:14.203Z,34.8
2019-03-24T05:00:05.305Z,34.8
2019-03-24T05:00:55.504Z,34.8
2019-03-24T05:01:44.346Z,34.8
2019-03-24T05:02:35.279Z,34.8
2019-03-24T05:03:25.848Z,34.7
2019-03-24T05:04:15.735Z,34.7
2019-03-24T05:05:06.057Z,34.7
2019-03-24T05:05:55.242Z,34.7
2019-03-24T05:06:45.815Z,34.7
2019-03-24T05:07:35.317Z,34.7
2019-03-24T05:08:25.692Z,34.7
2019-03-24T05:09:16.250Z,34.7
2019-03-24T05:10:06.061Z,34.7
2019-03-24T05:10:55.276Z,34.7
2019-03-24T05:11:45.627Z,34.7
2019-03-24T05:12:35.385Z,34.7
2019-03-24T05:13:25.731Z,34.7
2019-03-24T05:14:16.350Z,34.7
2019-03-24T05:15:05.963Z,34.6
2019-03-24T05:15:55.997Z,34.6
2019-03-24T05:16:46.247Z,34.6
2019-03-24T05:17:36.327Z,34.6
2019-03-24T05:18:26.365Z,34.6
2019-03-24T05:19:16.710Z,34.6
2019-03-24T05:20:06.971Z,34.6
2019-03-24T05:20:55.711Z,34.6
2019-03-24T05:21:47.110Z,34.6
2019-03-24T05:22:37.234Z,34.6
2019-03-24T05:23:26.949Z,34.6
2019-03-24T05:24:17.094Z,34.6
2019-03-24T05:25:06.934Z,34.6
2019-03-24T05:25:57.207Z,34.6
2019-03-24T05:26:47.177Z,34.6
2019-03-24T05:27:37.567Z,34.6
2019-03-24T05:28:26.576Z,34.6
2019-03-24T05:29:17.934Z,34.6
2019-03-24T05:30:07.446Z,34.5
2019-03-24T05:30:57.210Z,34.5
2019-03-24T05:31:47.561Z,34.6
2019-03-24T05:32:37.882Z,34.6
2019-03-24T05:33:27.461Z,34.5
2019-03-24T05:34:17.464Z,34.5
2019-03-24T05:35:09.270Z,34.5
2019-03-24T05:35:57.679Z,34.6
2019-03-24T05:36:47.916Z,34.5
2019-03-24T05:37:38.268Z,34.5
2019-03-24T05:38:27.810Z,34.5
2019-03-24T05:39:17.628Z,34.5
2019-03-24T05:40:07.693Z,34.5
2019-03-24T05:40:58.551Z,34.4
2019-03-24T05:41:48.049Z,34.4
2019-03-24T05:42:37.918Z,34.5
2019-03-24T05:43:28.758Z,34.4
2019-03-24T05:44:18.593Z,34.4
2019-03-24T05:45:08.881Z,34.4
2019-03-24T05:45:59.422Z,34.4
2019-03-24T05:46:48.355Z,34.4
2019-03-24T05:47:42.833Z,34.4
2019-03-24T05:48:29.391Z,34.4
2019-03-24T05:49:18.801Z,34.4
2019-03-24T05:50:08.880Z,34.4
2019-03-24T05:50:59.524Z,34.4
2019-03-24T05:51:48.981Z,34.4
2019-03-24T05:52:39.356Z,34.4
2019-03-24T05:53:29.655Z,34.4
2019-03-24T05:54:19.198Z,34.4
2019-03-24T05:55:09.228Z,34.4
2019-03-24T05:55:59.895Z,34.4
2019-03-24T05:56:49.099Z,34.4
2019-03-24T05:57:39.728Z,34.4
2019-03-24T05:58:30.362Z,34.4
2019-03-24T05:59:20.155Z,34.4
2019-03-24T06:00:10.231Z,34.4
2019-03-24T06:00:59.963Z,34.4
2019-03-24T06:01:50.278Z,34.4
2019-03-24T06:02:40.102Z,34.4
2019-03-24T06:03:29.275Z,34.4
2019-03-24T06:05:26.942Z,34.3
2019-03-24T06:06:17.020Z,34.3
2019-03-24T06:07:07.372Z,34.3
2019-03-24T06:07:57.705Z,34.3
2019-03-24T06:08:48.250Z,34.3
2019-03-24T06:09:37.842Z,34.3
2019-03-24T06:10:27.577Z,34.3
2019-03-24T06:11:17.105Z,25.9
2019-03-24T06:12:07.164Z,24
2019-03-24T06:12:58.109Z,31.1
2019-03-24T06:13:47.410Z,34.3
2019-03-24T06:14:38.389Z,33.9
2019-03-24T06:15:27.942Z,33.2
2019-03-24T06:16:17.750Z,32.8
2019-03-24T06:17:08.421Z,32.4
2019-03-24T06:17:58.139Z,32.3
2019-03-24T06:18:47.677Z,32.2
2019-03-24T06:19:37.426Z,32.1
2019-03-24T06:20:28.362Z,32.1
2019-03-24T06:21:18.171Z,32.2
2019-03-24T06:22:08.476Z,32.3
2019-03-24T06:22:57.721Z,32.4
2019-03-24T06:23:48.316Z,32.5
2019-03-24T06:24:38.671Z,32.6
2019-03-24T06:25:28.774Z,32.8
2019-03-24T06:26:18.739Z,32.9
2019-03-24T06:27:08.616Z,33
2019-03-24T06:27:59.463Z,30.5
2019-03-24T07:05:26.890Z,43.8
2019-03-24T07:06:16.425Z,44
2019-03-24T07:07:07.609Z,44.2
2019-03-24T07:07:57.926Z,44.4
2019-03-24T07:08:46.610Z,44.6
2019-03-24T07:09:36.947Z,44.8
2019-03-24T07:10:27.294Z,44.9
2019-03-24T07:11:19.412Z,45.1
2019-03-24T07:12:07.380Z,45.3
2019-03-24T07:12:58.293Z,45.4
2019-03-24T07:13:48.069Z,45.6
2019-03-24T07:14:37.842Z,45.8
2019-03-24T07:15:27.620Z,45.9
2019-03-24T07:16:20.242Z,46.1
2019-03-24T07:17:08.289Z,46.3
2019-03-24T07:17:56.979Z,46.4
2019-03-24T07:18:47.862Z,46.6
2019-03-24T07:19:38.202Z,46.8
2019-03-24T07:20:28.562Z,47
2019-03-24T07:21:18.875Z,47.2
2019-03-24T07:22:10.714Z,47.3
2019-03-24T07:22:58.727Z,47.5
2019-03-24T07:23:48.775Z,47.7
2019-03-24T07:24:38.836Z,47.9
2019-03-24T07:25:28.077Z,48.1
2019-03-24T07:26:18.939Z,48.2
2019-03-24T07:27:08.472Z,48.3
2019-03-24T07:27:58.804Z,48.5
2019-03-24T07:28:48.312Z,48.7
2019-03-24T07:29:38.076Z,48.8
2019-03-24T07:30:29.287Z,49.1
2019-03-24T07:31:19.072Z,49.3
2019-03-24T07:32:08.846Z,49.4
2019-03-24T07:32:59.203Z,49.6
2019-03-24T07:33:49.226Z,49.8
2019-03-24T07:34:38.759Z,49.9
2019-03-24T07:35:29.359Z,50
2019-03-24T07:36:18.893Z,50.1
2019-03-24T07:37:09.471Z,50.1
2019-03-24T07:38:00.081Z,50.3
2019-03-24T07:38:49.876Z,50.3
2019-03-24T07:39:39.393Z,50.4
2019-03-24T07:40:28.901Z,50.5
2019-03-24T07:41:19.233Z,50.6
2019-03-24T07:42:11.399Z,50.8
2019-03-24T07:42:59.391Z,50.9
2019-03-24T07:43:49.694Z,51.1
2019-03-24T07:44:39.733Z,51.3
2019-03-24T07:45:29.810Z,51.4
2019-03-24T07:46:20.409Z,51.6
2019-03-24T07:47:10.455Z,51.8
2019-03-24T07:48:50.598Z,52
2019-03-24T07:50:30.168Z,51.8
2019-03-24T07:51:20.770Z,51.4
2019-03-24T07:52:10.572Z,50.9
2019-03-24T07:53:00.326Z,50.5
2019-03-24T07:53:50.955Z,50.1
2019-03-24T07:54:40.745Z,49.6
2019-03-24T07:55:30.826Z,49.3
2019-03-24T07:56:20.873Z,48.8
2019-03-24T07:57:10.212Z,48.4
2019-03-24T07:58:01.562Z,47.9
2019-03-24T07:58:51.882Z,47.4
2019-03-24T07:59:41.412Z,47.1
2019-03-24T08:00:31.157Z,46.9
2019-03-24T08:01:20.945Z,46.7
2019-03-24T08:02:11.285Z,46.4
2019-03-24T08:03:01.705Z,46.3
2019-03-24T08:03:51.400Z,46.1
2019-03-24T08:04:41.468Z,46.1
2019-03-24T08:05:31.870Z,46
2019-03-24T08:06:21.855Z,45.8
2019-03-24T08:07:11.950Z,45.4
2019-03-24T08:08:01.722Z,44.9
2019-03-24T08:08:51.494Z,44.5
2019-03-24T08:09:43.039Z,44.1
2019-03-24T08:10:31.884Z,44
2019-03-24T08:11:21.708Z,44
2019-03-24T08:12:11.767Z,44
2019-03-24T08:13:02.659Z,44
2019-03-24T08:13:59.062Z,43.9
2019-03-24T08:14:42.731Z,43.8
2019-03-24T08:15:32.291Z,43.7
2019-03-24T08:16:21.824Z,43.6
2019-03-24T08:17:12.092Z,43.5
2019-03-24T08:18:02.416Z,43.4
2019-03-24T08:18:52.224Z,43.2
2019-03-24T08:19:42.056Z,43.1
2019-03-24T08:20:32.355Z,43
2019-03-24T08:21:21.864Z,43
2019-03-24T08:22:12.487Z,43
2019-03-24T08:23:03.089Z,43.1
2019-03-24T08:23:52.855Z,43.2
2019-03-24T08:24:43.187Z,43.3
2019-03-24T08:25:31.886Z,43.5
2019-03-24T08:26:22.521Z,43.7
2019-03-24T08:27:12.836Z,43.9
2019-03-24T08:28:02.898Z,44.1
2019-03-24T08:28:53.223Z,44.3
2019-03-24T08:29:43.881Z,44.6
2019-03-24T08:30:34.894Z,44.8
2019-03-24T08:31:23.745Z,45
2019-03-24T08:32:12.921Z,45.2
2019-03-24T08:33:03.593Z,45.4
2019-03-24T08:33:53.621Z,45.6
2019-03-24T08:34:43.646Z,45.8
2019-03-24T08:35:34.304Z,46
2019-03-24T08:36:23.515Z,46.3
2019-03-24T08:37:14.175Z,46.5
2019-03-24T08:38:03.929Z,46.8
2019-03-24T08:38:54.511Z,47
2019-03-24T08:39:44.318Z,47.3
2019-03-24T08:40:34.370Z,47.5
2019-03-24T08:41:23.582Z,47.8
2019-03-24T08:42:14.213Z,48.1
2019-03-24T08:43:04.534Z,48.3
2019-03-24T08:43:54.898Z,48.6
2019-03-24T08:44:44.666Z,48.8
2019-03-24T08:45:34.713Z,49.1
2019-03-24T08:46:24.212Z,49.4
2019-03-24T08:47:14.565Z,49.7
2019-03-24T08:48:04.352Z,49.9
2019-03-24T08:48:54.950Z,50.3
2019-03-24T08:49:44.757Z,50.5
2019-03-24T08:50:35.282Z,50.8
2019-03-24T08:51:24.067Z,51.1
2019-03-24T08:52:14.697Z,51.3
2019-03-24T08:53:04.975Z,51.6
2019-03-24T08:53:55.582Z,51.9
2019-03-24T08:54:44.832Z,52.1
2019-03-24T08:56:25.484Z,52.6
2019-03-24T08:57:15.006Z,52.9
2019-03-24T08:58:05.702Z,53.1
2019-03-24T08:58:54.839Z,53.4
2019-03-24T08:59:45.784Z,53.6
2019-03-24T09:00:36.886Z,53.8
2019-03-24T09:01:25.294Z,54
2019-03-24T09:02:15.397Z,54.2
2019-03-24T09:03:05.991Z,54.4
2019-03-24T09:03:55.604Z,54.6
2019-03-24T09:04:46.389Z,54.8
2019-03-24T09:05:38.478Z,55.1
2019-03-24T09:06:25.681Z,55.3
2019-03-24T09:07:16.334Z,55.5
2019-03-24T09:08:05.909Z,55.8
2019-03-24T09:08:55.861Z,56
2019-03-24T09:09:45.635Z,56.2
2019-03-24T09:10:35.408Z,56.4
2019-03-24T09:11:36.943Z,56.6
2019-03-24T09:12:16.638Z,56.8
2019-03-24T09:13:06.160Z,56.9
2019-03-24T09:13:56.509Z,57.1
2019-03-24T09:14:47.160Z,57.2
2019-03-24T09:15:36.638Z,57.4
2019-03-24T09:16:26.194Z,57.6
2019-03-24T09:18:07.133Z,57.9
2019-03-24T09:18:59.148Z,58.1
2019-03-24T09:19:46.926Z,58.3
2019-03-24T09:20:47.660Z,58.4
2019-03-24T09:21:27.006Z,58.6
2019-03-24T09:22:16.570Z,58.8
2019-03-24T09:23:06.893Z,58.9
2019-03-24T09:23:57.005Z,59.1
2019-03-24T09:24:47.045Z,59.2
2019-03-24T09:25:38.518Z,59.4
2019-03-24T09:26:27.111Z,59.5
2019-03-24T09:27:17.486Z,59.6
2019-03-24T09:28:10.428Z,59.8
2019-03-24T09:28:59.994Z,60
2019-03-24T09:29:47.705Z,60.1
2019-03-24T09:30:38.285Z,60.3
2019-03-24T09:31:27.020Z,60.3
2019-03-24T09:32:17.650Z,60.4
2019-03-24T09:33:07.728Z,60.6
2019-03-24T09:33:58.040Z,60.7
2019-03-24T09:34:48.310Z,60.9
2019-03-24T09:35:38.404Z,61.1
2019-03-24T09:36:28.435Z,61.2
2019-03-24T09:37:17.924Z,61.3
2019-03-24T09:38:08.007Z,61.4
2019-03-24T09:38:58.605Z,61.4
2019-03-24T09:39:47.849Z,61.5
2019-03-24T09:40:38.770Z,61.6
2019-03-24T09:41:28.814Z,61.8
2019-03-24T09:42:18.859Z,61.8
2019-03-24T09:43:08.412Z,61.9
2019-03-24T09:43:57.646Z,62.1
2019-03-24T09:44:48.266Z,62.2
2019-03-24T09:45:38.385Z,62.3
2019-03-24T09:46:29.175Z,62.3
2019-03-24T09:47:18.918Z,62.2
2019-03-24T09:48:09.289Z,62
2019-03-24T09:49:09.136Z,61.8
2019-03-24T09:49:49.081Z,61.6
2019-03-24T09:50:39.361Z,61.6
2019-03-24T09:51:29.236Z,61.6
2019-03-24T09:52:19.014Z,61.7
2019-03-24T09:53:09.708Z,61.8
2019-03-24T09:53:59.956Z,61.9
2019-03-24T09:54:49.241Z,62.1
2019-03-24T09:55:39.793Z,62.2
2019-03-24T09:56:29.588Z,62.3
2019-03-24T09:57:19.395Z,62.4
2019-03-24T09:58:09.748Z,62.5
2019-03-24T09:58:59.765Z,62.6
2019-03-24T09:59:50.086Z,62.8
2019-03-24T10:00:40.457Z,62.8
2019-03-24T10:01:30.546Z,63
2019-03-24T10:02:20.286Z,63.1
2019-03-24T10:03:09.518Z,63.1
2019-03-24T10:04:00.388Z,63
2019-03-24T10:06:26.497Z,62.6
2019-03-24T10:07:16.337Z,62.6
2019-03-24T10:08:06.653Z,62.6
2019-03-24T10:08:56.946Z,62.6
2019-03-24T10:09:46.465Z,62.5
2019-03-24T10:10:37.648Z,62.5
2019-03-24T10:11:27.387Z,62.4
2019-03-24T10:12:17.259Z,62.3
2019-03-24T10:13:08.107Z,62.3
2019-03-24T10:13:57.856Z,62.3
2019-03-24T10:14:48.202Z,62.4
2019-03-24T10:15:38.015Z,62.6
2019-03-24T10:16:28.377Z,62.6
2019-03-24T10:17:17.879Z,62.8
2019-03-24T10:18:08.410Z,62.9
2019-03-24T10:18:57.973Z,62.9
2019-03-24T10:19:48.299Z,63
2019-03-24T10:20:38.104Z,63.1
2019-03-24T10:21:28.692Z,63.1
2019-03-24T10:22:17.357Z,63.3
2019-03-24T10:23:08.837Z,63.3
2019-03-24T10:23:58.653Z,63.5
2019-03-24T10:24:48.434Z,63.7
2019-03-24T10:25:38.439Z,63.9
2019-03-24T10:26:28.494Z,64
2019-03-24T10:27:18.056Z,64.2
2019-03-24T10:28:09.213Z,64.3
2019-03-24T10:28:58.144Z,64.5
2019-03-24T10:29:48.744Z,64.6
2019-03-24T10:30:38.509Z,64.8
2019-03-24T10:31:29.136Z,64.9
2019-03-24T10:32:19.210Z,65
2019-03-24T10:33:09.376Z,65.1
2019-03-24T10:33:59.361Z,65.3
2019-03-24T10:34:49.121Z,65.4
2019-03-24T10:35:39.426Z,65.4
2019-03-24T10:36:29.029Z,65.6
2019-03-24T10:37:19.339Z,65.8
2019-03-24T10:38:08.831Z,65.9
2019-03-24T10:38:59.394Z,65.9
2019-03-24T10:39:49.329Z,66.1
2019-03-24T10:40:39.536Z,66.2
2019-03-24T10:41:28.202Z,66.3
2019-03-24T10:42:19.101Z,66.3
2019-03-24T10:43:10.293Z,66.4
2019-03-24T10:43:59.491Z,66.4
2019-03-24T10:44:49.283Z,66.4
2019-03-24T10:45:40.174Z,66.4
2019-03-24T10:46:29.110Z,66.4
2019-03-24T10:47:19.235Z,66.4
2019-03-24T10:48:10.360Z,66.4
2019-03-24T10:48:59.580Z,66.4
2019-03-24T10:49:50.287Z,66.4
2019-03-24T10:50:41.023Z,66.5
2019-03-24T10:51:29.582Z,66.6
2019-03-24T10:52:20.354Z,66.8
2019-03-24T10:53:10.202Z,66.9
2019-03-24T10:54:00.225Z,67
2019-03-24T10:54:50.265Z,67.1
2019-03-24T10:55:40.237Z,67.1
2019-03-24T10:56:30.405Z,67.1
2019-03-24T10:57:21.052Z,67.1
2019-03-24T10:58:11.145Z,67.1
2019-03-24T10:59:01.358Z,67.1
2019-03-24T10:59:50.914Z,67.2
2019-03-24T11:00:41.091Z,67.3
2019-03-24T11:01:30.520Z,67.3
2019-03-24T11:02:21.160Z,67.3
2019-03-24T11:03:11.180Z,67.4
2019-03-24T11:04:00.937Z,67.3
2019-03-24T11:04:51.312Z,67.3
2019-03-24T11:05:41.361Z,67.3
2019-03-24T11:06:30.574Z,67.3
2019-03-24T11:07:21.519Z,67.4
2019-03-24T11:08:11.820Z,67.5
2019-03-24T11:09:01.394Z,67.6
2019-03-24T11:09:51.927Z,67.7
2019-03-24T11:10:41.459Z,67.9
2019-03-24T11:11:30.666Z,67.9
2019-03-24T11:12:21.296Z,68
2019-03-24T11:13:26.324Z,68.1
2019-03-24T11:14:02.237Z,68.1
2019-03-24T11:14:51.462Z,68.2
2019-03-24T11:15:41.524Z,68.3
2019-03-24T11:16:32.433Z,68.3
2019-03-24T11:17:22.266Z,68.4
2019-03-24T11:18:12.281Z,68.4
2019-03-24T11:19:02.595Z,68.6
2019-03-24T11:19:51.636Z,68.7
2019-03-24T11:20:42.151Z,68.8
2019-03-24T11:21:32.841Z,68.8
2019-03-24T11:22:22.571Z,68.8
2019-03-24T11:23:12.893Z,68.8
2019-03-24T11:24:02.961Z,68.8
2019-03-24T11:24:53.011Z,68.8
2019-03-24T11:25:42.046Z,68.9
2019-03-24T11:26:33.426Z,68.9
2019-03-24T11:27:22.912Z,68.9
2019-03-24T11:28:12.458Z,69
2019-03-24T11:29:03.360Z,69.1
2019-03-24T11:29:53.178Z,69.1
2019-03-24T11:30:42.630Z,69.1
2019-03-24T11:31:32.953Z,69.2
2019-03-24T11:32:22.876Z,69.2
2019-03-24T11:33:13.408Z,69.2
2019-03-24T11:34:03.453Z,69.2
2019-03-24T11:34:53.468Z,69.3
2019-03-24T11:35:43.271Z,69.3
2019-03-24T11:36:33.606Z,69.4
2019-03-24T11:37:23.938Z,69.4
2019-03-24T11:38:13.755Z,69.4
2019-03-24T11:39:04.922Z,69.4
2019-03-24T11:39:53.342Z,69.4
2019-03-24T11:40:44.450Z,69.4
2019-03-24T11:41:34.224Z,69.4
2019-03-24T11:42:23.760Z,69.4
2019-03-24T11:43:14.350Z,69.4
2019-03-24T11:44:03.875Z,69.4
2019-03-24T11:44:53.637Z,69.4
2019-03-24T11:45:44.606Z,69.3
2019-03-24T11:46:49.267Z,69.3
2019-03-24T11:47:32.612Z,69.4
2019-03-24T11:48:13.937Z,69.4
2019-03-24T11:49:04.312Z,69.5
2019-03-24T11:49:54.967Z,69.4
2019-03-24T11:50:44.347Z,69.5
2019-03-24T11:51:34.975Z,69.5
2019-03-24T11:52:24.765Z,69.4
2019-03-24T11:53:14.529Z,69.4
2019-03-24T11:54:04.909Z,69.4